createdAt,value
2017-12-14T00:02:14.161Z,18.62
2017-12-14T00:04:42.806Z,17.83
2017-12-14T00:07:12.230Z,21.05
2017-12-14T00:09:40.904Z,19.00
2017-12-14T00:12:10.341Z,22.15
2017-12-14T00:14:38.986Z,19.50
2017-12-14T00:17:08.429Z,19.05
2017-12-14T00:19:37.085Z,19.35
2017-12-14T00:22:06.526Z,24.12
2017-12-14T00:24:34.528Z,19.12
2017-12-14T00:27:03.180Z,19.67
2017-12-14T00:29:31.822Z,19.58
2017-12-14T00:32:01.269Z,20.60
2017-12-14T00:34:29.929Z,21.33
2017-12-14T00:36:58.588Z,17.92
2017-12-14T00:39:27.249Z,17.90
2017-12-14T00:41:55.904Z,19.23
2017-12-14T00:44:24.558Z,17.55
2017-12-14T00:46:53.980Z,19.95
2017-12-14T00:49:22.660Z,19.92
2017-12-14T00:51:52.077Z,20.95
2017-12-14T00:54:20.741Z,18.48
2017-12-14T00:56:50.186Z,19.25
2017-12-14T00:59:18.831Z,23.42
2017-12-14T01:01:47.481Z,23.73
2017-12-14T01:04:16.149Z,16.23
2017-12-14T01:06:44.806Z,20.85
2017-12-14T01:09:14.212Z,18.58
2017-12-14T01:11:42.925Z,20.55
2017-12-14T01:14:11.585Z,18.23
2017-12-14T01:16:40.237Z,20.02
2017-12-14T01:19:08.942Z,20.50
2017-12-14T01:21:37.809Z,16.92
2017-12-14T01:24:06.448Z,20.62
2017-12-14T01:26:35.134Z,19.48
2017-12-14T01:29:03.786Z,18.33
2017-12-14T01:31:33.208Z,19.35
2017-12-14T01:34:01.882Z,18.80
2017-12-14T01:36:31.296Z,23.30
2017-12-14T01:39:00.726Z,18.70
2017-12-14T01:41:29.395Z,23.12
2017-12-14T01:43:58.044Z,19.20
2017-12-14T01:46:26.697Z,21.20
2017-12-14T01:48:56.292Z,22.25
2017-12-14T01:51:25.701Z,21.55
2017-12-14T01:53:54.346Z,19.90
2017-12-14T01:56:23.017Z,18.73
2017-12-14T01:58:51.665Z,22.70
2017-12-14T02:01:20.319Z,18.50
2017-12-14T02:03:49.025Z,16.50
2017-12-14T02:06:17.675Z,22.42
2017-12-14T02:08:47.117Z,17.95
2017-12-14T02:11:15.770Z,17.70
2017-12-14T02:13:45.184Z,17.23
2017-12-14T02:16:14.626Z,19.62
2017-12-14T02:18:43.275Z,18.15
2017-12-14T02:21:12.689Z,15.93
2017-12-14T02:23:41.355Z,17.58
2017-12-14T02:26:10.011Z,19.40
2017-12-14T02:28:38.669Z,19.25
2017-12-14T02:31:07.313Z,18.55
2017-12-14T02:33:36.721Z,20.67
2017-12-14T02:36:06.167Z,19.08
2017-12-14T02:38:34.810Z,19.98
2017-12-14T02:41:04.228Z,18.60
2017-12-14T02:43:32.947Z,17.50
2017-12-14T02:46:01.736Z,18.25
2017-12-14T02:48:30.411Z,20.77
2017-12-14T02:50:59.058Z,22.77
2017-12-14T02:53:27.713Z,21.10
2017-12-14T02:55:56.401Z,21.37
2017-12-14T02:58:25.069Z,22.48
2017-12-14T03:00:53.732Z,18.20
2017-12-14T03:03:22.073Z,22.33
2017-12-14T03:05:50.384Z,21.17
2017-12-14T03:08:18.713Z,21.58
2017-12-14T03:10:47.392Z,19.15
2017-12-14T03:13:16.036Z,21.85
2017-12-14T03:15:44.366Z,20.58
2017-12-14T03:18:13.042Z,20.83
2017-12-14T03:20:41.692Z,23.42
2017-12-14T03:23:10.332Z,18.58
2017-12-14T03:25:39.029Z,22.90
2017-12-14T03:28:07.673Z,20.10
2017-12-14T03:30:36.321Z,17.60
2017-12-14T03:33:05.761Z,18.50
2017-12-14T03:35:34.407Z,22.00
2017-12-14T03:38:03.825Z,16.80
2017-12-14T03:40:33.264Z,19.05
2017-12-14T03:43:01.913Z,17.08
2017-12-14T03:45:31.320Z,17.50
2017-12-14T03:47:59.644Z,17.90
2017-12-14T03:50:27.973Z,18.20
2017-12-14T03:52:56.285Z,18.42
2017-12-14T03:55:24.949Z,16.58
2017-12-14T03:57:53.593Z,19.83
2017-12-14T04:00:22.245Z,19.55
2017-12-14T04:02:50.929Z,20.33
2017-12-14T04:05:19.583Z,17.83
2017-12-14T04:07:48.994Z,18.17
2017-12-14T04:10:17.337Z,20.77
2017-12-14T04:12:45.319Z,18.05
2017-12-14T04:15:13.972Z,18.60
2017-12-14T04:17:42.309Z,18.50
2017-12-14T04:20:10.637Z,17.90
2017-12-14T04:22:38.962Z,18.73
2017-12-14T04:25:07.309Z,17.33
2017-12-14T04:27:35.293Z,19.00
2017-12-14T04:30:03.608Z,18.20
2017-12-14T04:32:31.934Z,19.35
2017-12-14T04:35:00.269Z,18.15
2017-12-14T04:37:28.581Z,18.23
2017-12-14T04:39:56.561Z,18.65
2017-12-14T04:42:25.145Z,17.90
2017-12-14T04:44:53.138Z,16.62
2017-12-14T04:47:22.217Z,17.45
2017-12-14T04:49:50.577Z,15.43
2017-12-14T04:52:18.558Z,19.33
2017-12-14T04:54:46.861Z,15.60
2017-12-14T04:57:15.968Z,18.40
2017-12-14T04:59:44.713Z,17.52
2017-12-14T05:02:12.704Z,16.35
2017-12-14T05:04:41.365Z,16.05
2017-12-14T05:07:09.686Z,15.13
2017-12-14T05:09:38.436Z,16.48
2017-12-14T05:12:06.442Z,14.60
2017-12-14T05:14:34.753Z,17.23
2017-12-14T05:17:03.065Z,18.58
2017-12-14T05:19:31.389Z,16.15
2017-12-14T05:22:00.141Z,17.62
2017-12-14T05:24:28.148Z,15.32
2017-12-14T05:26:56.894Z,14.30
2017-12-14T05:29:24.908Z,15.70
2017-12-14T05:31:53.649Z,15.73
2017-12-14T05:34:21.637Z,14.77
2017-12-14T05:36:49.667Z,15.77
2017-12-14T05:39:17.646Z,14.87
2017-12-14T05:41:45.637Z,15.10
2017-12-14T05:44:13.713Z,15.05
2017-12-14T05:46:41.708Z,13.93
2017-12-14T05:49:09.696Z,13.95
2017-12-14T05:51:38.454Z,13.27
2017-12-14T05:54:06.450Z,14.35
2017-12-14T05:56:34.620Z,11.30
2017-12-14T05:59:02.624Z,12.27
2017-12-14T06:01:30.721Z,11.90
2017-12-14T06:03:58.756Z,12.02
2017-12-14T06:06:26.789Z,10.65
2017-12-14T06:08:54.791Z,10.88
2017-12-14T06:11:23.305Z,9.35
2017-12-14T06:13:51.316Z,9.20
2017-12-14T06:16:19.297Z,7.82
2017-12-14T06:18:47.333Z,7.40
2017-12-14T06:21:15.344Z,8.00
2017-12-14T06:23:44.101Z,7.72
2017-12-14T06:26:12.753Z,8.63
2017-12-14T06:28:40.737Z,7.10
2017-12-14T06:31:08.724Z,7.05
2017-12-14T06:33:36.705Z,6.32
2017-12-14T06:36:04.739Z,6.78
2017-12-14T06:38:33.115Z,7.65
2017-12-14T06:41:01.913Z,8.30
2017-12-14T06:43:29.914Z,10.48
2017-12-14T06:45:57.950Z,10.65
2017-12-14T06:48:26.009Z,9.88
2017-12-14T06:50:54.060Z,10.32
2017-12-14T06:53:22.833Z,10.20
2017-12-14T06:55:50.853Z,8.55
2017-12-14T06:58:19.164Z,8.65
2017-12-14T07:00:47.152Z,10.07
2017-12-14T07:03:26.977Z,11.55
2017-12-14T07:05:57.197Z,11.48
2017-12-14T07:08:25.196Z,9.82
2017-12-14T07:10:53.538Z,10.02
2017-12-14T07:13:21.745Z,11.48
2017-12-14T07:15:49.780Z,12.45
2017-12-14T07:18:17.788Z,10.80
2017-12-14T07:20:45.783Z,11.07
2017-12-14T07:23:14.856Z,12.25
2017-12-14T07:25:43.034Z,11.73
2017-12-14T07:28:11.199Z,12.23
2017-12-14T07:30:39.224Z,12.00
2017-12-14T07:33:07.566Z,11.00
2017-12-14T07:35:35.786Z,11.23
2017-12-14T07:38:03.845Z,11.25
2017-12-14T07:40:31.866Z,12.32
2017-12-14T07:43:22.149Z,13.30
2017-12-14T07:46:10.533Z,10.75
2017-12-14T07:48:38.612Z,11.82
2017-12-14T07:51:08.033Z,10.95
2017-12-14T07:53:36.033Z,12.07
2017-12-14T07:56:04.701Z,12.45
2017-12-14T07:58:33.029Z,11.38
2017-12-14T08:01:01.349Z,11.98
2017-12-14T08:03:29.368Z,13.90
2017-12-14T08:05:57.360Z,11.77
2017-12-14T08:08:25.677Z,10.88
2017-12-14T08:10:53.693Z,11.02
2017-12-14T08:13:21.681Z,10.63
2017-12-14T08:15:49.669Z,10.55
2017-12-14T08:18:18.442Z,12.10
2017-12-14T08:20:47.093Z,10.23
2017-12-14T08:23:15.406Z,9.77
2017-12-14T08:25:43.733Z,11.38
2017-12-14T08:28:12.048Z,10.10
2017-12-14T08:30:40.701Z,10.65
2017-12-14T08:33:09.024Z,10.77
2017-12-14T08:35:37.010Z,14.68
2017-12-14T08:38:05.335Z,13.60
2017-12-14T08:40:33.667Z,13.27
2017-12-14T08:43:03.164Z,20.12
2017-12-14T08:45:31.468Z,13.60
2017-12-14T08:47:59.815Z,10.68
2017-12-14T08:50:27.789Z,12.45
2017-12-14T08:52:56.105Z,24.15
2017-12-14T08:55:24.425Z,27.13
2017-12-14T08:57:52.761Z,29.27
2017-12-14T09:00:20.757Z,26.67
2017-12-14T09:02:49.073Z,16.30
2017-12-14T09:05:17.385Z,12.30
2017-12-14T09:07:45.187Z,10.30
2017-12-14T09:10:13.501Z,9.40
2017-12-14T09:12:41.502Z,8.48
2017-12-14T09:15:09.473Z,7.78
2017-12-14T09:17:37.777Z,8.70
2017-12-14T09:20:06.106Z,7.95
2017-12-14T09:22:34.865Z,8.23
2017-12-14T09:25:02.844Z,7.40
2017-12-14T09:27:30.868Z,7.85
2017-12-14T09:29:58.857Z,7.55
2017-12-14T09:32:27.186Z,9.02
2017-12-14T09:34:55.246Z,9.60
2017-12-14T09:37:23.564Z,10.73
2017-12-14T09:39:51.571Z,11.27
2017-12-14T09:42:19.918Z,15.43
2017-12-14T09:44:47.927Z,11.85
2017-12-14T09:47:15.934Z,7.45
2017-12-14T09:49:44.264Z,6.82
2017-12-14T09:52:12.574Z,5.47
2017-12-14T09:54:40.877Z,5.10
2017-12-14T09:57:09.645Z,8.88
2017-12-14T09:59:37.653Z,7.32
2017-12-14T10:02:05.657Z,7.12
2017-12-14T10:04:33.703Z,6.50
2017-12-14T10:07:02.358Z,9.55
2017-12-14T10:09:31.441Z,8.18
2017-12-14T10:11:59.837Z,4.63
2017-12-14T10:14:27.574Z,7.10
2017-12-14T10:16:55.309Z,10.10
2017-12-14T10:19:23.095Z,6.23
2017-12-14T10:21:51.581Z,6.60
2017-12-14T10:24:20.073Z,4.60
2017-12-14T10:26:48.597Z,4.20
2017-12-14T10:29:16.305Z,4.43
2017-12-14T10:31:45.127Z,4.77
2017-12-14T10:34:13.242Z,4.67
2017-12-14T10:36:40.949Z,4.00
2017-12-14T10:39:09.748Z,4.70
2017-12-14T10:41:37.817Z,5.00
2017-12-14T10:44:05.860Z,4.97
2017-12-14T10:46:33.901Z,5.67
2017-12-14T10:49:02.540Z,3.43
2017-12-14T10:51:31.332Z,3.73
2017-12-14T10:53:59.805Z,3.70
2017-12-14T10:56:28.319Z,3.53
2017-12-14T10:58:56.364Z,4.13
2017-12-14T11:01:30.605Z,3.40
2017-12-14T11:03:58.313Z,3.13
2017-12-14T11:06:26.022Z,2.77
2017-12-14T11:08:56.065Z,3.03
2017-12-14T11:11:23.782Z,3.07
2017-12-14T11:13:52.257Z,3.00
2017-12-14T11:16:19.993Z,2.90
2017-12-14T11:18:47.714Z,3.03
2017-12-14T11:21:15.432Z,3.00
2017-12-14T11:23:43.197Z,2.67
2017-12-14T11:26:10.920Z,3.07
2017-12-14T11:28:38.962Z,2.73
2017-12-14T11:31:06.701Z,2.53
2017-12-14T11:33:34.745Z,2.20
2017-12-14T11:36:02.457Z,2.87
2017-12-14T11:38:30.958Z,2.50
2017-12-14T11:40:59.753Z,2.50
2017-12-14T11:43:27.461Z,2.33
2017-12-14T11:45:55.194Z,2.10
2017-12-14T11:48:22.909Z,2.60
2017-12-14T11:50:50.600Z,2.57
2017-12-14T11:53:20.318Z,2.27
2017-12-14T11:55:48.414Z,2.13
2017-12-14T11:58:16.137Z,2.60
2017-12-14T12:00:44.633Z,2.47
2017-12-14T12:03:12.357Z,2.30
2017-12-14T12:05:40.434Z,2.40
2017-12-14T12:08:09.574Z,2.20
2017-12-14T12:10:37.433Z,2.53
2017-12-14T12:13:05.463Z,3.42
2017-12-14T12:15:34.958Z,2.80
2017-12-14T12:18:03.728Z,2.90
2017-12-14T12:20:32.864Z,3.12
2017-12-14T12:23:01.835Z,2.20
2017-12-14T12:25:29.862Z,2.45
2017-12-14T12:27:57.890Z,8.55
2017-12-14T12:30:25.913Z,2.97
2017-12-14T12:32:53.986Z,2.53
2017-12-14T12:35:22.040Z,2.00
2017-12-14T12:37:50.051Z,2.10
2017-12-14T12:40:18.823Z,2.60
2017-12-14T12:42:46.876Z,1.83
2017-12-14T12:45:14.985Z,5.60
2017-12-14T12:47:43.806Z,2.58
2017-12-14T12:50:12.157Z,2.60
2017-12-14T12:52:40.955Z,1.67
2017-12-14T12:55:09.722Z,2.00
2017-12-14T12:57:38.075Z,1.92
2017-12-14T13:00:06.067Z,1.80
2017-12-14T13:02:34.118Z,3.00
2017-12-14T13:05:02.109Z,1.90
2017-12-14T13:07:30.095Z,4.05
2017-12-14T13:09:59.246Z,11.10
2017-12-14T13:12:28.263Z,2.80
2017-12-14T13:14:56.861Z,2.70
2017-12-14T13:17:25.386Z,2.20
2017-12-14T13:19:53.762Z,3.15
2017-12-14T13:22:21.774Z,3.05
2017-12-14T13:24:49.848Z,2.80
2017-12-14T13:27:18.217Z,2.17
2017-12-14T13:29:46.277Z,1.25
2017-12-14T13:32:14.305Z,1.27
2017-12-14T13:34:43.409Z,1.45
2017-12-14T13:37:11.761Z,1.27
2017-12-14T13:39:40.542Z,1.27
2017-12-14T13:42:08.573Z,1.40
2017-12-14T13:44:36.980Z,1.10
2017-12-14T13:47:05.014Z,1.20
2017-12-14T13:49:33.358Z,0.88
2017-12-14T13:52:01.454Z,1.15
2017-12-14T13:54:30.236Z,1.40
2017-12-14T13:56:59.040Z,1.00
2017-12-14T13:59:27.422Z,1.23
2017-12-14T14:01:56.527Z,1.83
2017-12-14T14:04:24.868Z,1.05
2017-12-14T14:06:53.262Z,1.40
2017-12-14T14:09:22.375Z,1.30
2017-12-14T14:11:51.070Z,1.23
2017-12-14T14:14:19.766Z,1.20
2017-12-14T14:16:48.477Z,1.08
2017-12-14T14:19:16.809Z,1.12
2017-12-14T14:21:46.283Z,0.80
2017-12-14T14:24:14.962Z,1.05
2017-12-14T14:26:43.654Z,1.10
2017-12-14T14:29:12.827Z,1.15
2017-12-14T14:31:40.849Z,0.90
2017-12-14T14:34:09.643Z,1.70
2017-12-14T14:36:38.921Z,1.17
2017-12-14T14:39:07.636Z,3.95
2017-12-14T14:41:37.078Z,2.05
2017-12-14T14:44:05.787Z,1.90
2017-12-14T14:46:34.449Z,1.52
2017-12-14T14:49:03.183Z,2.28
2017-12-14T14:51:31.942Z,1.50
2017-12-14T14:54:00.648Z,5.55
2017-12-14T14:56:29.355Z,5.75
2017-12-14T14:58:58.929Z,3.05
2017-12-14T15:01:27.679Z,2.50
2017-12-14T15:03:56.359Z,2.80
2017-12-14T15:06:25.042Z,2.80
2017-12-14T15:08:53.773Z,6.90
2017-12-14T15:11:22.454Z,6.60
2017-12-14T15:13:51.202Z,5.20
2017-12-14T15:16:20.665Z,4.18
2017-12-14T15:18:49.362Z,2.95
2017-12-14T15:21:18.154Z,5.68
2017-12-14T15:23:46.874Z,7.82
2017-12-14T15:26:15.598Z,11.77
2017-12-14T15:28:44.351Z,13.50
2017-12-14T15:31:13.049Z,16.67
2017-12-14T15:33:41.735Z,23.58
2017-12-14T15:36:10.481Z,12.90
2017-12-14T15:38:39.965Z,14.77
2017-12-14T15:41:08.721Z,12.07
2017-12-14T15:43:37.449Z,11.07
2017-12-14T15:46:06.403Z,10.27
2017-12-14T15:48:35.095Z,9.77
2017-12-14T15:51:03.830Z,7.57
2017-12-14T15:53:32.538Z,14.82
2017-12-14T15:56:02.001Z,14.40
2017-12-14T15:58:30.719Z,12.50
2017-12-14T16:00:59.425Z,11.20
2017-12-14T16:03:28.213Z,10.60
2017-12-14T16:05:57.895Z,11.85
2017-12-14T16:08:26.591Z,10.98
2017-12-14T16:10:56.089Z,14.18
2017-12-14T16:13:24.773Z,12.93
2017-12-14T16:15:53.666Z,14.93
2017-12-14T16:18:22.405Z,13.93
2017-12-14T16:20:51.084Z,15.70
2017-12-14T16:23:19.769Z,15.10
2017-12-14T16:25:48.505Z,18.62
2017-12-14T16:28:17.198Z,15.23
2017-12-14T16:30:45.567Z,14.57
2017-12-14T16:33:14.302Z,13.45
2017-12-14T16:35:43.015Z,13.45
2017-12-14T16:38:11.696Z,11.32
2017-12-14T16:40:40.421Z,10.77
2017-12-14T16:43:09.127Z,11.43
2017-12-14T16:45:38.594Z,12.00
2017-12-14T16:48:07.321Z,10.55
2017-12-14T16:50:36.810Z,10.35
2017-12-14T16:53:05.493Z,8.18
2017-12-14T16:55:34.221Z,9.88
2017-12-14T16:58:02.954Z,9.65
2017-12-14T17:00:31.308Z,8.13
2017-12-14T17:03:00.018Z,14.45
2017-12-14T17:05:28.726Z,11.20
2017-12-14T17:07:57.425Z,9.85
2017-12-14T17:10:26.100Z,8.70
2017-12-14T17:12:54.811Z,7.65
2017-12-14T17:15:23.477Z,5.78
2017-12-14T17:17:52.173Z,5.40
2017-12-14T17:20:20.854Z,5.35
2017-12-14T17:22:49.564Z,3.83
2017-12-14T17:25:18.058Z,3.87
2017-12-14T17:27:47.526Z,4.85
2017-12-14T17:30:16.216Z,5.72
2017-12-14T17:32:44.907Z,4.43
2017-12-14T17:35:13.570Z,3.35
2017-12-14T17:37:42.238Z,2.60
2017-12-14T17:40:10.939Z,2.85
2017-12-14T17:42:39.611Z,3.45
2017-12-14T17:45:08.330Z,3.33
2017-12-14T17:47:37.033Z,4.00
2017-12-14T17:50:05.759Z,4.10
2017-12-14T17:52:34.454Z,3.40
2017-12-14T17:55:03.181Z,4.18
2017-12-14T17:57:31.854Z,3.83
2017-12-14T18:00:00.554Z,4.35
2017-12-14T18:02:29.375Z,4.45
2017-12-14T18:04:58.058Z,4.37
2017-12-14T18:07:26.725Z,4.45
2017-12-14T18:09:55.468Z,4.45
2017-12-14T18:12:24.147Z,4.90
2017-12-14T18:14:52.826Z,4.45
2017-12-14T18:17:22.306Z,5.00
2017-12-14T18:19:51.009Z,5.65
2017-12-14T18:22:20.458Z,5.30
2017-12-14T18:24:49.291Z,4.55
2017-12-14T18:27:17.962Z,4.10
2017-12-14T18:29:47.238Z,5.43
2017-12-14T18:32:15.955Z,4.68
2017-12-14T18:34:44.649Z,6.93
2017-12-14T18:37:13.334Z,6.30
2017-12-14T18:39:42.055Z,6.57
2017-12-14T18:42:10.750Z,6.65
2017-12-14T18:44:39.484Z,8.52
2017-12-14T18:47:08.192Z,8.57
2017-12-14T18:49:36.875Z,9.20
2017-12-14T18:52:06.351Z,8.32
2017-12-14T18:54:34.761Z,6.62
2017-12-14T18:57:03.449Z,5.82
2017-12-14T18:59:31.823Z,6.62
2017-12-14T19:01:59.886Z,7.55
2017-12-14T19:04:28.305Z,6.25
2017-12-14T19:06:56.389Z,6.43
2017-12-14T19:09:25.112Z,6.70
2017-12-14T19:11:53.141Z,13.43
2017-12-14T19:14:22.456Z,12.75
2017-12-14T19:16:50.513Z,17.67
2017-12-14T19:19:19.213Z,20.90
2017-12-14T19:21:47.663Z,19.75
2017-12-14T19:24:17.122Z,19.95
2017-12-14T19:26:45.836Z,17.50
2017-12-14T19:29:14.566Z,16.50
2017-12-14T19:31:42.954Z,16.40
2017-12-14T19:34:11.693Z,13.40
2017-12-14T19:36:40.442Z,11.45
2017-12-14T19:39:09.178Z,10.75
2017-12-14T19:41:37.876Z,10.05
2017-12-14T19:44:06.662Z,11.25
2017-12-14T19:46:36.144Z,10.80
2017-12-14T19:49:04.829Z,8.85
2017-12-14T19:51:33.543Z,10.40
2017-12-14T19:54:01.922Z,11.10
2017-12-14T19:56:30.609Z,10.88
2017-12-14T19:58:59.371Z,8.95
2017-12-14T20:01:28.074Z,8.77
2017-12-14T20:03:56.765Z,9.98
2017-12-14T20:06:26.306Z,10.32
2017-12-14T20:08:55.002Z,9.70
2017-12-14T20:11:23.921Z,11.18
2017-12-14T20:13:52.299Z,18.20
2017-12-14T20:16:20.661Z,17.70
2017-12-14T20:18:49.398Z,23.62
2017-12-14T20:21:18.074Z,20.33
2017-12-14T20:23:46.767Z,20.33
2017-12-14T20:26:15.494Z,19.90
2017-12-14T20:28:43.990Z,19.58
2017-12-14T20:31:12.677Z,21.83
2017-12-14T20:33:41.165Z,21.05
2017-12-14T20:36:09.845Z,18.50
2017-12-14T20:38:38.570Z,13.00
2017-12-14T20:41:07.269Z,15.95
2017-12-14T20:43:35.944Z,14.73
2017-12-14T20:46:04.308Z,16.98
2017-12-14T20:48:33.017Z,15.15
2017-12-14T20:51:01.089Z,13.68
2017-12-14T20:53:29.575Z,13.32
2017-12-14T20:55:58.311Z,11.85
2017-12-14T20:58:26.653Z,13.07
2017-12-14T21:00:55.374Z,10.13
2017-12-14T21:03:23.815Z,10.75
2017-12-14T21:05:52.193Z,9.85
2017-12-14T21:08:20.889Z,9.00
2017-12-14T21:10:49.598Z,9.68
2017-12-14T21:13:18.409Z,10.27
2017-12-14T21:15:47.120Z,12.30
2017-12-14T21:18:16.654Z,12.70
2017-12-14T21:20:45.360Z,12.77
2017-12-14T21:23:14.050Z,10.77
2017-12-14T21:25:43.509Z,9.93
2017-12-14T21:28:12.222Z,7.15
2017-12-14T21:30:40.902Z,9.75
2017-12-14T21:33:09.739Z,10.32
2017-12-14T21:35:38.535Z,10.27
2017-12-14T21:38:06.729Z,10.40
2017-12-14T21:40:35.451Z,8.57
2017-12-14T21:43:04.281Z,10.60
2017-12-14T21:45:33.002Z,11.32
2017-12-14T21:48:01.707Z,8.45
2017-12-14T21:50:30.409Z,8.40
2017-12-14T21:52:58.981Z,11.18
2017-12-14T21:55:27.364Z,6.82
2017-12-14T21:57:55.385Z,5.57
2017-12-14T22:00:23.417Z,7.00
2017-12-14T22:02:52.166Z,6.30
2017-12-14T22:05:21.605Z,4.25
2017-12-14T22:07:50.286Z,4.60
2017-12-14T22:10:19.091Z,5.25
2017-12-14T22:12:47.802Z,6.28
2017-12-14T22:15:16.490Z,5.37
2017-12-14T22:17:45.949Z,7.53
2017-12-14T22:20:14.640Z,8.77
2017-12-14T22:22:43.333Z,9.32
2017-12-14T22:25:12.022Z,7.05
2017-12-14T22:27:40.717Z,6.95
2017-12-14T22:30:09.401Z,8.13
2017-12-14T22:32:38.110Z,6.93
2017-12-14T22:35:06.781Z,7.35
2017-12-14T22:37:35.491Z,8.75
2017-12-14T22:40:04.957Z,8.10
2017-12-14T22:42:33.625Z,8.63
2017-12-14T22:45:02.345Z,7.35
2017-12-14T22:47:31.049Z,5.62
2017-12-14T22:50:00.741Z,5.15
2017-12-14T22:52:29.454Z,6.78
2017-12-14T22:54:58.936Z,6.25
2017-12-14T22:57:27.715Z,5.95
2017-12-14T22:59:56.397Z,7.07
2017-12-14T23:02:25.062Z,4.32
2017-12-14T23:04:53.405Z,5.87
2017-12-14T23:07:22.094Z,6.50
2017-12-14T23:09:51.551Z,6.32
2017-12-14T23:12:20.245Z,6.32
2017-12-14T23:14:48.937Z,6.28
2017-12-14T23:17:17.310Z,6.50
2017-12-14T23:19:46.230Z,5.20
2017-12-14T23:22:15.693Z,6.40
2017-12-14T23:24:44.452Z,7.80
2017-12-14T23:27:13.143Z,7.68
2017-12-14T23:29:41.819Z,7.00
2017-12-14T23:32:10.534Z,6.00
2017-12-14T23:34:39.241Z,7.60
2017-12-14T23:37:07.909Z,5.55
2017-12-14T23:39:36.627Z,5.80
2017-12-14T23:42:05.002Z,5.07
2017-12-14T23:44:33.677Z,4.80
2017-12-14T23:47:02.017Z,4.80
2017-12-14T23:49:31.475Z,6.00
2017-12-14T23:52:00.509Z,5.62
2017-12-14T23:54:29.969Z,5.22
2017-12-14T23:56:59.223Z,5.00
2017-12-14T23:59:27.900Z,5.78
